Time;durP1;ratioP1;P1;durP2;ratioP2;P2;SDS_P1;SDS_P2;PMS_P1;PMS_P2;Temp;Humidity;BMP_temperature;BMP_pressure;BME280_temperature;BME280_humidity;BME280_pressure;Samples;Min_cycle;Max_cycle;Signal;HPM_P1;HPM_P2
2024/01/07 00:01:13;;;;;;;21.00;7.07;;;;;;;1.95;100.00;100931.09;5033486;28;20044;-73
2024/01/07 00:03:40;;;;;;;13.15;6.30;;;;;;;2.00;100.00;100929.38;5063739;28;20037;-73
2024/01/07 00:06:05;;;;;;;15.23;6.28;;;;;;;1.93;100.00;100934.09;5018309;28;20032;-73
2024/01/07 00:08:31;;;;;;;13.57;7.25;;;;;;;1.91;100.00;100929.91;5035536;28;20033;-73
2024/01/07 00:10:56;;;;;;;14.10;6.90;;;;;;;1.90;100.00;100936.47;5035022;28;20057;-73
2024/01/07 00:13:22;;;;;;;14.10;6.57;;;;;;;1.88;100.00;100942.16;5035879;28;20425;-73
2024/01/07 00:15:48;;;;;;;12.93;6.05;;;;;;;1.89;100.00;100937.50;5036074;28;20025;-73
2024/01/07 00:18:13;;;;;;;14.10;7.30;;;;;;;1.85;100.00;100947.25;5034735;28;20036;-73
2024/01/07 00:20:38;;;;;;;16.15;8.35;;;;;;;1.88;100.00;100944.88;5000139;28;20538;-73
2024/01/07 00:23:04;;;;;;;19.20;8.05;;;;;;;1.90;100.00;100945.50;5034267;28;20033;-73
2024/01/07 00:25:29;;;;;;;15.93;6.97;;;;;;;1.89;100.00;100948.47;5034530;28;20101;-73
2024/01/07 00:27:55;;;;;;;18.70;8.52;;;;;;;1.89;100.00;100954.78;5034255;28;20044;-73
2024/01/07 00:30:21;;;;;;;19.67;8.27;;;;;;;1.87;100.00;100951.44;5017016;28;20036;-73
2024/01/07 00:32:46;;;;;;;15.88;7.68;;;;;;;1.86;100.00;100948.91;5036945;28;20040;-73
2024/01/07 00:35:12;;;;;;;20.38;8.52;;;;;;;1.89;100.00;100951.19;5032299;28;20036;-73
2024/01/07 00:37:37;;;;;;;19.05;8.60;;;;;;;1.82;100.00;100954.00;5033488;28;20076;-73
2024/01/07 00:40:04;;;;;;;15.45;8.30;;;;;;;1.83;100.00;100952.94;5015835;28;20029;-73
2024/01/07 00:42:30;;;;;;;19.45;9.23;;;;;;;1.81;100.00;100955.06;5050626;28;20040;-73
2024/01/07 00:44:55;;;;;;;21.38;9.30;;;;;;;1.79;100.00;100954.47;5018181;28;20033;-73
2024/01/07 00:47:21;;;;;;;17.25;8.38;;;;;;;1.82;100.00;100953.19;5035430;28;20056;-73
2024/01/07 00:49:46;;;;;;;11.93;7.03;;;;;;;1.81;100.00;100957.78;5022719;28;20029;-73
2024/01/07 00:52:12;;;;;;;17.90;7.50;;;;;;;1.75;100.00;100950.47;5017549;28;20030;-73
2024/01/07 00:54:37;;;;;;;12.50;7.30;;;;;;;1.75;100.00;100945.00;5037527;28;20037;-73
2024/01/07 00:57:04;;;;;;;16.42;7.65;;;;;;;1.79;100.00;100944.34;5033600;28;20509;-73
2024/01/07 00:59:29;;;;;;;12.77;6.70;;;;;;;1.78;100.00;100952.78;5035387;28;20032;-73
2024/01/07 01:01:55;;;;;;;15.88;7.32;;;;;;;1.76;100.00;100949.44;5017702;28;20034;-73
2024/01/07 01:04:21;;;;;;;11.20;6.95;;;;;;;1.74;100.00;100951.56;5035180;28;20064;-73
2024/01/07 01:06:46;;;;;;;14.82;6.97;;;;;;;1.71;100.00;100965.69;5033965;28;20025;-73
2024/01/07 01:09:12;;;;;;;14.35;7.13;;;;;;;1.69;100.00;100971.38;5034002;28;20036;-73
2024/01/07 01:11:37;;;;;;;11.90;6.65;;;;;;;1.71;100.00;100965.69;5035302;28;20037;-73
2024/01/07 01:14:03;;;;;;;14.73;6.97;;;;;;;1.71;100.00;100957.50;5035477;28;20055;-73
2024/01/07 01:16:29;;;;;;;11.30;6.68;;;;;;;1.68;100.00;100961.50;5001266;28;20025;-73
2024/01/07 01:18:56;;;;;;;13.88;7.10;;;;;;;1.64;100.00;100962.16;5035447;28;20053;-73
2024/01/07 01:21:21;;;;;;;13.15;7.28;;;;;;;1.63;100.00;100974.19;5033891;28;20514;-73
2024/01/07 01:23:47;;;;;;;12.00;6.68;;;;;;;1.60;100.00;100972.75;5003664;28;20026;-73
2024/01/07 01:26:12;;;;;;;15.15;7.05;;;;;;;1.55;100.00;100976.13;5037807;28;20026;-73
2024/01/07 01:28:38;;;;;;;14.95;7.32;;;;;;;1.59;100.00;100983.91;5039078;28;20034;-73
2024/01/07 01:31:03;;;;;;;12.15;6.45;;;;;;;1.56;100.00;100977.84;5038026;28;20504;-73
2024/01/07 01:33:29;;;;;;;13.43;7.10;;;;;;;1.55;100.00;100987.09;5014724;28;20017;-73
2024/01/07 01:35:54;;;;;;;15.55;6.90;;;;;;;1.53;100.00;100988.38;5037695;28;20029;-73
2024/01/07 01:38:20;;;;;;;12.50;6.68;;;;;;;1.52;100.00;100992.19;5036557;28;20500;-72
2024/01/07 01:40:52;;;;;;;11.68;5.60;;;;;;;1.54;100.00;100982.69;5018675;28;20025;-73
2024/01/07 01:43:27;;;;;;;12.43;6.20;;;;;;;1.51;100.00;100985.88;5019970;28;20397;-73
2024/01/07 01:45:53;;;;;;;11.23;5.82;;;;;;;1.45;100.00;100975.81;5034021;28;20048;-73
2024/01/07 01:48:18;;;;;;;10.20;6.55;;;;;;;1.43;100.00;100977.09;5023288;28;20473;-73
2024/01/07 01:50:44;;;;;;;14.88;6.10;;;;;;;1.44;100.00;100982.34;5036408;28;20056;-73
2024/01/07 01:53:10;;;;;;;11.13;5.85;;;;;;;1.41;100.00;100984.69;5024614;28;20041;-73
2024/01/07 01:55:35;;;;;;;9.02;5.57;;;;;;;1.38;100.00;100991.44;5019297;28;20057;-73
2024/01/07 01:58:03;;;;;;;9.85;6.45;;;;;;;1.39;100.00;100992.28;5019479;28;20091;-73
2024/01/07 02:00:30;;;;;;;11.55;5.82;;;;;;;1.36;100.00;100988.06;5019554;28;20052;-73
2024/01/07 02:02:55;;;;;;;11.88;5.50;;;;;;;1.30;100.00;100991.72;5036254;28;20089;-73
2024/01/07 02:05:21;;;;;;;11.48;5.95;;;;;;;1.31;100.00;101001.63;5020836;28;20455;-73
2024/01/07 02:07:46;;;;;;;12.15;5.80;;;;;;;1.36;100.00;101001.75;5004445;28;20057;-73
2024/01/07 02:10:12;;;;;;;11.35;5.18;;;;;;;1.34;100.00;101001.16;5036996;28;20045;-73
2024/01/07 02:12:38;;;;;;;10.70;5.53;;;;;;;1.31;100.00;100999.72;5016885;28;20030;-73
2024/01/07 02:15:04;;;;;;;11.30;5.55;;;;;;;1.30;100.00;101008.13;5036625;28;20033;-72
2024/01/07 02:17:29;;;;;;;12.77;5.70;;;;;;;1.30;100.00;101013.59;5035864;28;20026;-73
2024/01/07 02:19:55;;;;;;;12.10;5.97;;;;;;;1.31;100.00;101005.19;5036687;28;20062;-73
2024/01/07 02:22:20;;;;;;;13.50;5.43;;;;;;;1.29;100.00;101015.50;5020576;28;20390;-73
2024/01/07 02:24:46;;;;;;;10.10;5.88;;;;;;;1.27;100.00;101014.88;5020198;28;20033;-73
2024/01/07 02:27:11;;;;;;;17.25;5.97;;;;;;;1.25;100.00;101016.16;5017301;28;20153;-73
2024/01/07 02:29:37;;;;;;;13.52;5.30;;;;;;;1.22;100.00;101022.06;5034472;28;20036;-73
2024/01/07 02:32:03;;;;;;;11.52;5.25;;;;;;;1.20;100.00;101021.44;5037383;28;20029;-73
2024/01/07 02:34:28;;;;;;;9.77;5.00;;;;;;;1.19;100.00;101014.31;5016649;28;20367;-73
2024/01/07 02:36:53;;;;;;;12.48;5.43;;;;;;;1.19;100.00;101020.59;5068576;28;20021;-73
2024/01/07 02:39:19;;;;;;;9.55;4.70;;;;;;;1.20;100.00;101016.84;5014823;28;20036;-73
2024/01/07 02:41:45;;;;;;;7.78;4.55;;;;;;;1.19;100.00;101012.41;5037794;28;20163;-72
2024/01/07 02:44:10;;;;;;;10.82;4.88;;;;;;;1.20;100.00;101010.50;5019721;28;20548;-73
2024/01/07 02:46:36;;;;;;;12.43;4.18;;;;;;;1.20;100.00;101015.97;5020114;28;20052;-72
2024/01/07 02:49:01;;;;;;;14.25;4.35;;;;;;;1.23;100.00;101012.81;5041500;28;20030;-73
2024/01/07 02:51:27;;;;;;;9.82;4.45;;;;;;;1.24;100.00;101029.00;5037695;28;20609;-72
2024/01/07 02:53:52;;;;;;;9.75;4.88;;;;;;;1.26;100.00;101024.16;5040872;28;20032;-73
2024/01/07 02:56:17;;;;;;;16.73;5.57;;;;;;;1.31;100.00;101026.25;5036386;28;20034;-72
2024/01/07 02:58:43;;;;;;;8.30;4.25;;;;;;;1.30;100.00;101024.53;5037295;28;20525;-72
2024/01/07 03:01:09;;;;;;;13.52;4.68;;;;;;;1.29;100.00;101028.34;5036458;28;20033;-72
2024/01/07 03:03:35;;;;;;;8.38;4.47;;;;;;;1.27;100.00;101025.81;5035678;28;20029;-73
2024/01/07 03:06:00;;;;;;;10.88;3.97;;;;;;;1.32;100.00;101031.47;5016513;28;20037;-73
2024/01/07 03:08:25;;;;;;;10.05;4.50;;;;;;;1.36;100.00;101031.88;5032064;28;20025;-73
2024/01/07 03:10:51;;;;;;;7.40;3.90;;;;;;;1.34;100.00;101029.38;5036161;28;20025;-73
2024/01/07 03:13:16;;;;;;;7.20;4.13;;;;;;;1.35;100.00;101030.19;5019615;28;20152;-73
2024/01/07 03:15:42;;;;;;;12.88;4.43;;;;;;;1.37;100.00;101027.25;5037208;28;20040;-73
2024/01/07 03:18:07;;;;;;;9.10;3.97;;;;;;;1.35;100.00;101035.66;5035860;28;20040;-73
2024/01/07 03:20:33;;;;;;;9.73;4.35;;;;;;;1.32;100.00;101023.28;5036830;28;20057;-73
2024/01/07 03:23:00;;;;;;;8.15;4.38;;;;;;;1.31;100.00;101026.25;5035524;28;20037;-73
2024/01/07 03:25:26;;;;;;;6.20;3.75;;;;;;;1.30;100.00;101030.00;5035753;28;20486;-73
2024/01/07 03:27:51;;;;;;;8.60;4.07;;;;;;;1.30;100.00;101030.00;5035690;28;20033;-73
2024/01/07 03:30:17;;;;;;;11.85;4.60;;;;;;;1.28;100.00;101030.25;5019463;28;20084;-73
2024/01/07 03:32:42;;;;;;;13.02;4.85;;;;;;;1.30;100.00;101033.59;5036446;28;20025;-73
2024/01/07 03:35:10;;;;;;;12.60;4.72;;;;;;;1.24;100.00;101031.75;5036765;28;20052;-73
2024/01/07 03:37:36;;;;;;;9.23;4.07;;;;;;;1.29;100.00;101039.28;5015583;28;20034;-73
2024/01/07 03:40:02;;;;;;;7.72;3.83;;;;;;;1.31;100.00;101039.94;5034957;28;20045;-73
2024/01/07 03:42:27;;;;;;;8.80;4.30;;;;;;;1.28;100.00;101043.94;5017828;28;20120;-73
2024/01/07 03:44:53;;;;;;;9.27;4.38;;;;;;;1.25;100.00;101047.09;5014426;28;20092;-73
2024/01/07 03:47:18;;;;;;;11.57;4.07;;;;;;;1.17;100.00;101038.28;5033976;28;20453;-73
2024/01/07 03:49:44;;;;;;;9.45;4.00;;;;;;;1.18;100.00;101042.72;5007875;28;20025;-73
2024/01/07 03:52:09;;;;;;;8.98;4.20;;;;;;;1.14;100.00;101042.31;5035137;28;20026;-73
2024/01/07 03:54:35;;;;;;;7.88;4.63;;;;;;;1.11;100.00;101038.13;5020182;28;20024;-73
2024/01/07 03:57:02;;;;;;;8.25;3.75;;;;;;;1.12;100.00;101036.25;5030106;28;20021;-73
2024/01/07 03:59:28;;;;;;;9.00;4.10;;;;;;;1.11;100.00;101040.88;5034957;28;20025;-73
2024/01/07 04:01:55;;;;;;;9.02;4.00;;;;;;;1.09;100.00;101044.88;5034558;28;20037;-73
2024/01/07 04:04:20;;;;;;;9.32;3.92;;;;;;;1.04;100.00;101048.25;4999051;28;20030;-73
2024/01/07 04:06:46;;;;;;;7.15;3.83;;;;;;;0.99;100.00;101042.59;5031750;28;20421;-73
2024/01/07 04:09:11;;;;;;;8.95;3.97;;;;;;;0.98;100.00;101040.94;4998539;28;20035;-73
2024/01/07 04:11:41;;;;;;;9.05;3.72;;;;;;;0.93;100.00;101040.75;5014202;28;20033;-73
2024/01/07 04:14:06;;;;;;;5.90;3.45;;;;;;;0.94;100.00;101044.31;5018487;28;20041;-72
2024/01/07 04:16:32;;;;;;;9.55;4.10;;;;;;;0.90;100.00;101043.91;5034394;28;20075;-73
2024/01/07 04:18:57;;;;;;;8.27;3.92;;;;;;;0.85;100.00;101043.72;5036305;28;20562;-73
2024/01/07 04:21:23;;;;;;;9.57;4.43;;;;;;;0.81;100.00;101034.28;5034379;28;20046;-73
2024/01/07 04:23:48;;;;;;;6.57;3.20;;;;;;;0.79;100.00;101041.88;5034639;28;20037;-73
2024/01/07 04:26:15;;;;;;;9.80;4.50;;;;;;;0.75;100.00;101038.69;5018532;28;20053;-73
2024/01/07 04:28:43;;;;;;;8.43;3.95;;;;;;;0.75;100.00;101038.69;5035811;28;20497;-72
2024/01/07 04:31:09;;;;;;;10.32;4.30;;;;;;;0.73;100.00;101045.47;5034668;28;20026;-73
2024/01/07 04:33:35;;;;;;;12.60;5.13;;;;;;;0.74;100.00;101044.41;5051214;28;20033;-73
2024/01/07 04:36:00;;;;;;;8.30;4.55;;;;;;;0.75;100.00;101046.91;5034411;28;20021;-72
2024/01/07 04:38:29;;;;;;;10.32;4.60;;;;;;;0.73;100.00;101049.03;5034279;28;20044;-73
2024/01/07 04:40:54;;;;;;;10.10;4.95;;;;;;;0.75;100.00;101044.16;5035581;28;20041;-73
2024/01/07 04:43:20;;;;;;;10.68;4.65;;;;;;;0.72;100.00;101046.50;5001689;28;20031;-73
2024/01/07 04:45:45;;;;;;;11.98;4.75;;;;;;;0.75;100.00;101046.91;5034572;28;20033;-73
2024/01/07 04:48:11;;;;;;;14.20;4.63;;;;;;;0.74;100.00;101052.59;5037462;28;20107;-72
2024/01/07 04:50:36;;;;;;;11.85;4.78;;;;;;;0.77;100.00;101052.16;5037438;28;20030;-73
2024/01/07 04:53:02;;;;;;;11.38;6.00;;;;;;;0.79;100.00;101055.53;5036999;28;20048;-73
2024/01/07 04:55:29;;;;;;;10.10;5.03;;;;;;;0.77;100.00;101053.00;5035900;28;20056;-73
2024/01/07 04:57:55;;;;;;;10.95;6.13;;;;;;;0.80;100.00;101063.50;5017111;28;20036;-73
2024/01/07 05:00:21;;;;;;;12.15;5.60;;;;;;;0.88;100.00;101065.16;5017550;28;20056;-72
2024/01/07 05:02:47;;;;;;;11.77;5.57;;;;;;;0.90;100.00;101063.06;5001423;28;20120;-73
2024/01/07 05:05:14;;;;;;;11.45;5.40;;;;;;;0.91;100.00;101070.19;5035242;28;20025;-73
2024/01/07 05:07:40;;;;;;;9.77;5.07;;;;;;;0.94;100.00;101064.28;5034301;28;20390;-73
2024/01/07 05:10:05;;;;;;;8.98;5.10;;;;;;;0.97;100.00;101061.13;5034974;28;20040;-72
2024/01/07 05:12:31;;;;;;;13.43;5.47;;;;;;;0.97;100.00;101072.06;5034048;28;20030;-73
2024/01/07 05:14:56;;;;;;;11.95;5.63;;;;;;;0.98;100.00;101068.28;5034041;28;20049;-72
2024/01/07 05:17:22;;;;;;;10.77;5.72;;;;;;;0.99;100.00;101072.69;5035151;28;20087;-72
2024/01/07 05:19:48;;;;;;;10.93;4.90;;;;;;;0.98;100.00;101076.50;5034999;28;20045;-73
2024/01/07 05:22:13;;;;;;;9.55;4.60;;;;;;;1.00;100.00;101073.53;5033878;28;20045;-73
2024/01/07 05:24:39;;;;;;;12.75;5.50;;;;;;;1.03;100.00;101081.28;5033430;28;20152;-72
2024/01/07 05:27:05;;;;;;;10.13;5.25;;;;;;;1.00;100.00;101074.34;5014223;28;20082;-73
2024/01/07 05:29:33;;;;;;;11.20;6.47;;;;;;;0.97;100.00;101080.25;5028489;28;20030;-73
2024/01/07 05:32:00;;;;;;;14.13;6.32;;;;;;;1.00;100.00;101077.09;5016629;28;20476;-72
2024/01/07 05:34:28;;;;;;;14.98;6.00;;;;;;;1.02;100.00;101085.94;5032781;28;20044;-73
2024/01/07 05:36:54;;;;;;;11.35;6.18;;;;;;;1.06;100.00;101079.00;5033378;28;20091;-73
2024/01/07 05:39:19;;;;;;;13.23;7.00;;;;;;;1.06;100.00;101079.00;5026470;28;20025;-73
2024/01/07 05:41:45;;;;;;;14.63;6.30;;;;;;;1.11;100.00;101084.66;5033661;28;20045;-73
2024/01/07 05:44:11;;;;;;;12.93;6.78;;;;;;;1.12;100.00;101085.47;5034789;28;20475;-73
2024/01/07 05:46:40;;;;;;;18.33;8.40;;;;;;;1.14;100.00;101087.97;5001209;28;20036;-73
2024/01/07 05:49:05;;;;;;;16.77;8.23;;;;;;;1.16;100.00;101092.19;5021980;28;20025;-73
2024/01/07 05:51:31;;;;;;;14.57;7.05;;;;;;;1.18;100.00;101094.72;5035020;28;20052;-73
2024/01/07 05:53:56;;;;;;;17.60;8.60;;;;;;;1.19;100.00;101090.91;5019819;28;20033;-73
2024/01/07 05:56:22;;;;;;;16.48;7.72;;;;;;;1.20;100.00;101087.97;5015986;28;20030;-73
2024/01/07 05:58:47;;;;;;;17.75;7.53;;;;;;;1.23;100.00;101093.00;5031508;28;20064;-73
2024/01/07 06:01:20;;;;;;;18.60;7.82;;;;;;;1.25;100.00;101090.03;5032924;28;20029;-73
2024/01/07 06:03:47;;;;;;;14.18;7.30;;;;;;;1.25;100.00;101092.78;5017028;28;20029;-73
2024/01/07 06:06:13;;;;;;;14.20;6.65;;;;;;;1.26;100.00;101097.22;5033626;28;20474;-73
2024/01/07 06:08:38;;;;;;;12.85;7.13;;;;;;;1.34;100.00;101111.47;5017724;28;20055;-73
2024/01/07 06:11:04;;;;;;;17.00;6.70;;;;;;;1.32;100.00;101107.28;5038567;28;20029;-73
2024/01/07 06:13:29;;;;;;;14.00;7.60;;;;;;;1.31;100.00;101117.38;5038234;28;20044;-73
2024/01/07 06:15:55;;;;;;;13.50;6.53;;;;;;;1.35;100.00;101126.00;5038422;28;20029;-73
2024/01/07 06:18:20;;;;;;;11.32;6.43;;;;;;;1.33;100.00;101114.41;5036949;28;20029;-73
2024/01/07 06:20:46;;;;;;;12.30;6.18;;;;;;;1.31;100.00;101119.28;5036830;28;20057;-73
2024/01/07 06:23:11;;;;;;;10.40;6.28;;;;;;;1.30;100.00;101114.84;5019931;28;20041;-73
2024/01/07 06:25:37;;;;;;;11.35;6.45;;;;;;;1.29;100.00;101118.66;5038234;28;20044;-73
2024/01/07 06:28:03;;;;;;;15.27;7.38;;;;;;;1.26;100.00;101125.41;5036775;28;20390;-73
2024/01/07 06:30:28;;;;;;;10.77;6.30;;;;;;;1.29;100.00;101126.88;5036882;28;20041;-73
2024/01/07 06:32:54;;;;;;;19.38;8.30;;;;;;;1.23;100.00;101122.28;5046075;28;20063;-73
2024/01/07 06:35:19;;;;;;;13.23;7.60;;;;;;;1.23;100.00;101122.28;5037910;28;20030;-73
2024/01/07 06:37:45;;;;;;;15.77;7.68;;;;;;;1.23;100.00;101128.56;5036426;28;20389;-73
2024/01/07 06:40:11;;;;;;;16.58;8.00;;;;;;;1.26;100.00;101125.41;5036645;28;20033;-73
2024/01/07 06:42:37;;;;;;;17.27;8.57;;;;;;;1.28;100.00;101127.91;5033795;28;20036;-73
2024/01/07 06:45:03;;;;;;;16.85;8.57;;;;;;;1.32;100.00;101129.16;5034382;28;20029;-73
2024/01/07 06:47:29;;;;;;;16.85;9.10;;;;;;;1.35;100.00;101128.72;5015828;28;20033;-73
2024/01/07 06:49:54;;;;;;;17.10;8.80;;;;;;;1.41;100.00;101127.00;5034418;28;20038;-73
2024/01/07 06:52:20;;;;;;;18.83;9.05;;;;;;;1.43;100.00;101133.13;5034902;28;20029;-73
2024/01/07 06:54:46;;;;;;;16.00;7.60;;;;;;;1.47;100.00;101134.34;5056228;28;20036;-73
2024/01/07 06:57:12;;;;;;;16.90;8.00;;;;;;;1.50;100.00;101137.47;5018641;28;20026;-74
2024/01/07 06:59:37;;;;;;;17.85;9.02;;;;;;;1.51;100.00;101149.28;5050188;28;20034;-73
2024/01/07 07:02:03;;;;;;;16.83;8.52;;;;;;;1.55;100.00;101147.78;5036002;28;20037;-73
2024/01/07 07:04:28;;;;;;;15.25;7.68;;;;;;;1.56;100.00;101153.06;5036117;28;20029;-74
2024/01/07 07:06:54;;;;;;;13.15;7.25;;;;;;;1.58;100.00;101151.97;5037087;28;20585;-73
2024/01/07 07:09:19;;;;;;;14.60;7.00;;;;;;;1.61;100.00;101148.81;5036119;28;20039;-73
2024/01/07 07:11:45;;;;;;;13.60;7.10;;;;;;;1.63;100.00;101152.16;5036032;28;20029;-74
2024/01/07 07:14:10;;;;;;;12.13;6.63;;;;;;;1.64;100.00;101165.63;5019506;28;20391;-73
2024/01/07 07:16:36;;;;;;;12.85;6.78;;;;;;;1.66;100.00;101163.50;5031680;28;20196;-73
2024/01/07 07:19:01;;;;;;;13.32;7.72;;;;;;;1.69;100.00;101167.72;5031870;28;20041;-73
2024/01/07 07:21:27;;;;;;;15.25;8.27;;;;;;;1.67;100.00;101164.34;5032357;28;20033;-73
2024/01/07 07:23:53;;;;;;;17.63;7.82;;;;;;;1.67;100.00;101165.22;5035535;28;20041;-73
2024/01/07 07:26:18;;;;;;;13.20;7.82;;;;;;;1.69;100.00;101170.44;5034741;28;20441;-73
2024/01/07 07:28:43;;;;;;;16.77;8.15;;;;;;;1.65;100.00;101170.06;5033464;28;20045;-73
2024/01/07 07:31:11;;;;;;;18.27;8.15;;;;;;;1.65;100.00;101172.78;5068845;28;20072;-73
2024/01/07 07:33:38;;;;;;;14.18;7.75;;;;;;;1.66;100.00;101165.41;5028118;28;20030;-73
2024/01/07 07:36:04;;;;;;;15.40;7.80;;;;;;;1.60;100.00;101166.28;5018679;28;20060;-73
2024/01/07 07:38:30;;;;;;;17.48;8.13;;;;;;;1.60;100.00;101171.78;5034242;28;20033;-73
2024/01/07 07:40:55;;;;;;;11.63;6.70;;;;;;;1.56;100.00;101180.44;5049368;28;20033;-73
2024/01/07 07:43:20;;;;;;;14.48;7.57;;;;;;;1.54;100.00;101184.44;4999098;28;20037;-73
2024/01/07 07:45:46;;;;;;;15.20;8.18;;;;;;;1.51;100.00;101191.19;5032490;28;20486;-73
2024/01/07 07:48:12;;;;;;;14.35;8.18;;;;;;;1.48;100.00;101193.53;5022138;28;20412;-73
2024/01/07 07:50:37;;;;;;;12.10;7.53;;;;;;;1.48;100.00;101188.88;5036605;28;20061;-73
2024/01/07 07:53:03;;;;;;;14.38;8.10;;;;;;;1.49;100.00;101201.50;5039235;28;20428;-73
2024/01/07 07:55:28;;;;;;;15.50;7.95;;;;;;;1.44;100.00;101195.84;5016663;28;20028;-73
2024/01/07 07:57:54;;;;;;;19.50;9.60;;;;;;;1.47;100.00;101189.94;5034994;28;20052;-73
2024/01/07 08:00:20;;;;;;;14.98;9.20;;;;;;;1.45;100.00;101193.94;5033068;28;20034;-73
2024/01/07 08:02:45;;;;;;;16.35;9.10;;;;;;;1.47;100.00;101194.56;5015394;28;20038;-73
2024/01/07 08:05:11;;;;;;;18.73;9.15;;;;;;;1.48;100.00;101204.47;5031529;28;20029;-74
2024/01/07 08:07:36;;;;;;;17.73;10.35;;;;;;;1.49;100.00;101206.97;5035998;28;20040;-73
2024/01/07 08:10:02;;;;;;;23.85;14.10;;;;;;;1.51;100.00;101204.88;5033651;28;20485;-73
2024/01/07 08:12:28;;;;;;;22.95;12.93;;;;;;;1.51;100.00;101199.41;5035231;28;20036;-73
2024/01/07 08:14:53;;;;;;;21.67;12.93;;;;;;;1.58;100.00;101206.75;5013652;28;20036;-74
2024/01/07 08:17:19;;;;;;;20.67;13.30;;;;;;;1.58;100.00;101221.25;5034844;28;20409;-73
2024/01/07 08:19:44;;;;;;;24.02;13.77;;;;;;;1.61;100.00;101223.56;5034539;28;20052;-73
2024/01/07 08:22:14;;;;;;;20.65;13.30;;;;;;;1.63;100.00;101228.84;5035893;28;20029;-73
2024/01/07 08:24:39;;;;;;;23.15;12.93;;;;;;;1.67;100.00;101235.53;5034080;28;20021;-73
2024/01/07 08:27:05;;;;;;;26.20;12.68;;;;;;;1.72;100.00;101233.00;5014890;28;20041;-73
2024/01/07 08:29:30;;;;;;;25.73;11.35;;;;;;;1.75;100.00;101229.81;5031764;28;20033;-73
2024/01/07 08:31:56;;;;;;;19.80;9.88;;;;;;;1.81;100.00;101237.16;5024523;28;20094;-73
2024/01/07 08:34:21;;;;;;;22.73;9.68;;;;;;;1.86;100.00;101244.72;5020713;28;20025;-73
2024/01/07 08:36:47;;;;;;;17.55;9.40;;;;;;;1.90;100.00;101235.03;5034480;28;20036;-74
2024/01/07 08:39:15;;;;;;;16.52;8.73;;;;;;;1.96;100.00;101236.88;5035397;28;20044;-73
2024/01/07 08:41:41;;;;;;;20.02;9.65;;;;;;;2.01;100.00;101242.56;5034681;28;20466;-73
2024/01/07 08:44:08;;;;;;;20.02;9.95;;;;;;;2.04;100.00;101241.28;5034215;28;20103;-73
2024/01/07 08:46:34;;;;;;;16.95;8.85;;;;;;;2.08;100.00;101253.47;5034609;28;20057;-73
2024/01/07 08:48:59;;;;;;;20.02;8.60;;;;;;;2.11;100.00;101250.28;5016302;28;20176;-73
2024/01/07 08:51:25;;;;;;;17.33;9.30;;;;;;;2.10;100.00;101246.72;5063227;28;20037;-74
2024/01/07 08:53:50;;;;;;;16.75;8.75;;;;;;;2.13;100.00;101251.75;5037023;28;20022;-73
2024/01/07 08:56:16;;;;;;;17.98;8.85;;;;;;;2.14;100.00;101255.31;5035296;28;20033;-75
2024/01/07 08:58:42;;;;;;;20.80;10.35;;;;;;;2.19;100.00;101261.81;5034325;28;20029;-72
2024/01/07 09:01:08;;;;;;;19.50;8.80;;;;;;;2.22;100.00;101252.31;5033399;28;20033;-74
2024/01/07 09:03:33;;;;;;;20.55;9.57;;;;;;;2.27;100.00;101252.50;5001667;28;20086;-75
2024/01/07 09:05:59;;;;;;;15.18;6.80;;;;;;;2.31;100.00;101256.47;5034838;28;20670;-74
2024/01/07 09:08:24;;;;;;;14.80;5.90;;;;;;;2.40;100.00;101263.38;5049431;28;20083;-74
2024/01/07 09:10:50;;;;;;;14.88;5.32;;;;;;;2.41;100.00;101267.78;5033737;28;20044;-75
2024/01/07 09:13:16;;;;;;;13.18;4.85;;;;;;;2.47;100.00;101275.13;5017176;28;20087;-75
2024/01/07 09:15:41;;;;;;;8.70;5.28;;;;;;;2.53;100.00;101272.56;5018014;28;20029;-75
2024/01/07 09:18:07;;;;;;;10.77;5.03;;;;;;;2.56;100.00;101278.44;5035122;28;20743;-75
2024/01/07 09:20:33;;;;;;;16.35;7.03;;;;;;;2.58;100.00;101270.00;5017603;28;20126;-74
2024/01/07 09:22:59;;;;;;;12.65;6.15;;;;;;;2.63;100.00;101279.25;5034710;28;20454;-75
2024/01/07 09:25:25;;;;;;;16.33;5.18;;;;;;;2.61;100.00;101283.25;5035005;28;20029;-74
2024/01/07 09:27:51;;;;;;;11.02;4.97;;;;;;;2.66;100.00;101280.69;5017764;28;20029;-74
2024/01/07 09:30:17;;;;;;;13.93;4.20;;;;;;;2.70;100.00;101284.66;5033758;28;20544;-74
2024/01/07 09:32:43;;;;;;;11.55;3.90;;;;;;;2.71;100.00;101285.53;5044325;28;20030;-75
2024/01/07 09:35:08;;;;;;;11.35;3.83;;;;;;;2.71;100.00;101280.03;5035133;28;20037;-75
2024/01/07 09:37:35;;;;;;;11.05;3.30;;;;;;;2.72;100.00;101288.03;5049971;28;20029;-74
2024/01/07 09:40:01;;;;;;;11.15;3.30;;;;;;;2.71;100.00;101294.59;5035379;28;20034;-72
2024/01/07 09:42:26;;;;;;;19.73;3.92;;;;;;;2.74;100.00;101294.13;5017331;28;20025;-72
2024/01/07 09:44:52;;;;;;;18.33;4.25;;;;;;;2.77;100.00;101293.69;5036667;28;20037;-72
2024/01/07 09:47:17;;;;;;;11.30;3.30;;;;;;;2.76;100.00;101294.75;5021062;28;20089;-72
2024/01/07 09:49:43;;;;;;;11.15;3.33;;;;;;;2.78;100.00;101297.25;5006042;28;20499;-72
2024/01/07 09:52:10;;;;;;;10.18;3.38;;;;;;;2.80;100.00;101292.41;5035059;28;20037;-72
2024/01/07 09:54:39;;;;;;;11.35;3.40;;;;;;;2.84;100.00;101286.25;5008714;28;20109;-73
2024/01/07 09:57:06;;;;;;;9.35;3.40;;;;;;;2.86;100.00;101295.09;5020784;28;20026;-73
2024/01/07 09:59:32;;;;;;;11.40;3.90;;;;;;;2.93;100.00;101294.22;5020902;28;20026;-72
2024/01/07 10:01:57;;;;;;;13.10;3.78;;;;;;;2.95;100.00;101297.53;4996414;28;20022;-72
2024/01/07 10:04:23;;;;;;;13.30;3.90;;;;;;;2.96;100.00;101294.59;4985125;28;20084;-72
2024/01/07 10:06:49;;;;;;;9.30;3.80;;;;;;;3.03;100.00;101300.84;5034326;28;20029;-73
2024/01/07 10:09:17;;;;;;;10.98;4.80;;;;;;;3.09;100.00;101310.94;5037088;28;20029;-72
2024/01/07 10:11:43;;;;;;;10.10;4.15;;;;;;;3.14;100.00;101307.50;5003132;28;20032;-72
2024/01/07 10:14:09;;;;;;;11.52;4.32;;;;;;;3.18;100.00;101307.91;5037269;28;20021;-72
2024/01/07 10:16:34;;;;;;;10.73;4.10;;;;;;;3.31;100.00;101311.34;5035890;28;20033;-73
2024/01/07 10:19:00;;;;;;;10.50;4.43;;;;;;;3.34;100.00;101313.66;5017960;28;20086;-72
2024/01/07 10:21:25;;;;;;;7.47;4.20;;;;;;;3.38;100.00;101316.78;5018351;28;20060;-72
2024/01/07 10:23:54;;;;;;;19.38;5.95;;;;;;;3.44;100.00;101313.13;5036376;28;20034;-72
2024/01/07 10:26:20;;;;;;;19.13;6.15;;;;;;;3.55;100.00;101300.56;5020822;28;20033;-72
2024/01/07 10:28:45;;;;;;;16.25;6.22;;;;;;;3.58;100.00;101308.34;5017217;28;20034;-73
2024/01/07 10:31:11;;;;;;;14.68;5.78;;;;;;;3.63;100.00;101302.16;4998768;28;20022;-72
2024/01/07 10:33:36;;;;;;;9.98;4.53;;;;;;;3.67;100.00;101298.72;5029312;28;20036;-72
2024/01/07 10:36:05;;;;;;;15.27;3.97;;;;;;;3.75;100.00;101295.66;5037901;28;20029;-72
2024/01/07 10:38:33;;;;;;;8.40;3.85;;;;;;;3.75;100.00;101290.16;5036584;28;20381;-72
2024/01/07 10:41:02;;;;;;;7.50;3.10;;;;;;;3.82;100.00;101303.84;5019103;28;20414;-72
2024/01/07 10:43:29;;;;;;;6.22;3.40;;;;;;;3.80;100.00;101301.31;5036026;28;20045;-72
2024/01/07 10:45:54;;;;;;;10.27;3.17;;;;;;;3.86;100.00;101306.97;5035087;28;20090;-72
2024/01/07 10:48:20;;;;;;;9.70;3.63;;;;;;;3.92;100.00;101308.78;5040843;28;20041;-73
2024/01/07 10:50:46;;;;;;;13.80;4.10;;;;;;;4.01;100.00;101312.88;5037187;28;20072;-72
2024/01/07 10:53:14;;;;;;;12.77;3.75;;;;;;;4.06;100.00;101310.28;5008160;28;20090;-72
2024/01/07 10:55:39;;;;;;;11.55;3.72;;;;;;;4.12;100.00;101309.34;5017554;28;20029;-72
2024/01/07 10:58:05;;;;;;;11.48;3.65;;;;;;;4.15;100.00;101308.91;5000147;28;20065;-73
2024/01/07 11:00:31;;;;;;;35.35;14.07;;;;;;;4.20;100.00;101300.78;5032835;28;20034;-72
2024/01/07 11:03:10;;;;;;;16.75;8.48;;;;;;;4.27;100.00;101308.13;5016308;28;20030;-72
2024/01/07 11:05:50;;;;;;;13.52;5.85;;;;;;;4.27;100.00;101302.63;5017134;28;20033;-72
2024/01/07 11:08:37;;;;;;;12.88;4.97;;;;;;;4.25;100.00;101295.44;5033541;28;20091;-72
2024/01/07 11:11:18;;;;;;;10.95;5.47;;;;;;;4.33;100.00;101288.78;5034933;28;20041;-72
2024/01/07 11:13:44;;;;;;;16.77;7.03;;;;;;;4.34;100.00;101289.59;5020037;28;20100;-73